Time;durP1;ratioP1;P1;durP2;ratioP2;P2;SDS_P1;SDS_P2;PMS_P1;PMS_P2;Temp;Humidity;BMP_temperature;BMP_pressure;BME280_temperature;BME280_humidity;BME280_pressure;Samples;Min_cycle;Max_cycle;Signal;HPM_P1;HPM_P2
2022/07/19 00:01:39;;;;;;;6.85;6.20;;;21.20;99.90;;;;;;5034251;28;20213;-69
2022/07/19 00:04:05;;;;;;;8.25;6.10;;;21.10;99.90;;;;;;5032476;28;20230;-68
2022/07/19 00:06:30;;;;;;;6.45;5.78;;;21.20;99.90;;;;;;5034168;28;20191;-69
2022/07/19 00:08:56;;;;;;;7.30;6.57;;;21.20;99.90;;;;;;5047872;28;20217;-68
2022/07/19 00:11:22;;;;;;;9.25;8.48;;;21.10;99.90;;;;;;5041327;28;20555;-69
2022/07/19 00:13:47;;;;;;;7.10;6.50;;;21.10;99.90;;;;;;5033565;28;20172;-68
2022/07/19 00:16:14;;;;;;;6.53;5.50;;;21.20;99.90;;;;;;5043182;28;20179;-69
2022/07/19 00:18:40;;;;;;;9.35;5.63;;;21.20;99.90;;;;;;5053654;28;20217;-69
2022/07/19 00:21:05;;;;;;;7.10;6.43;;;21.10;99.90;;;;;;5044355;28;20238;-69
2022/07/19 00:23:31;;;;;;;6.25;5.65;;;21.10;99.90;;;;;;5033582;28;20173;-69
2022/07/19 00:25:57;;;;;;;6.40;5.65;;;21.00;99.90;;;;;;5033420;28;20259;-70
2022/07/19 00:28:22;;;;;;;5.93;5.35;;;21.00;99.90;;;;;;5033758;28;20509;-69
2022/07/19 00:30:48;;;;;;;7.70;6.32;;;21.00;99.90;;;;;;5037873;28;20178;-69
2022/07/19 00:33:14;;;;;;;6.60;6.03;;;21.00;99.90;;;;;;5053528;28;20258;-69
2022/07/19 00:35:40;;;;;;;8.07;5.35;;;21.00;99.90;;;;;;5049124;28;20166;-69
2022/07/19 00:38:13;;;;;;;5.78;5.20;;;21.00;99.90;;;;;;5032089;28;20179;-69
2022/07/19 00:40:40;;;;;;;6.20;5.55;;;20.90;99.90;;;;;;5035090;28;20249;-69
2022/07/19 00:43:07;;;;;;;11.63;6.43;;;20.90;99.90;;;;;;5053228;28;20213;-69
2022/07/19 00:45:33;;;;;;;9.32;6.15;;;20.90;99.90;;;;;;5050923;28;20171;-68
2022/07/19 00:47:59;;;;;;;6.47;5.15;;;20.90;99.90;;;;;;5031911;28;20178;-69
2022/07/19 00:50:25;;;;;;;6.40;5.90;;;20.80;99.90;;;;;;5032035;28;20681;-69
2022/07/19 00:52:53;;;;;;;6.60;6.10;;;20.80;99.90;;;;;;5051768;28;20182;-69
2022/07/19 00:55:21;;;;;;;11.23;5.47;;;20.80;99.90;;;;;;5052899;28;20175;-69
2022/07/19 00:57:47;;;;;;;6.60;5.90;;;20.70;99.90;;;;;;5033807;28;20183;-69
2022/07/19 01:00:15;;;;;;;6.30;5.20;;;20.70;99.90;;;;;;5048568;28;20203;-69
2022/07/19 01:02:41;;;;;;;6.85;4.90;;;20.70;99.90;;;;;;5051557;28;20348;-69
2022/07/19 01:05:08;;;;;;;8.73;5.18;;;20.70;99.90;;;;;;5038656;28;20187;-69
2022/07/19 01:07:40;;;;;;;6.45;5.20;;;20.70;99.90;;;;;;5031786;28;20585;-69
2022/07/19 01:10:07;;;;;;;5.80;5.10;;;20.70;99.90;;;;;;5045944;28;20600;-69
2022/07/19 01:12:33;;;;;;;5.80;5.03;;;20.60;99.90;;;;;;5052956;28;20170;-69
2022/07/19 01:15:00;;;;;;;6.20;5.45;;;20.60;99.90;;;;;;5038898;28;20553;-69
2022/07/19 01:17:26;;;;;;;7.07;5.97;;;20.50;99.90;;;;;;5031476;28;20175;-69
2022/07/19 01:19:53;;;;;;;6.03;5.30;;;20.50;99.90;;;;;;5031386;28;20204;-69
2022/07/19 01:22:19;;;;;;;10.35;5.55;;;20.50;99.90;;;;;;5032650;28;20235;-69
2022/07/19 01:24:45;;;;;;;5.53;5.03;;;20.50;99.90;;;;;;5033253;28;20241;-69
2022/07/19 01:27:11;;;;;;;6.10;4.95;;;20.50;99.90;;;;;;5032582;28;20168;-69
2022/07/19 01:29:37;;;;;;;5.88;5.15;;;20.40;99.90;;;;;;5032256;28;20685;-69
2022/07/19 01:32:04;;;;;;;6.10;5.22;;;20.40;99.90;;;;;;5032335;28;20179;-69
2022/07/19 01:34:30;;;;;;;8.85;5.78;;;20.40;99.90;;;;;;5036430;28;20212;-68
2022/07/19 01:36:55;;;;;;;6.93;5.50;;;20.40;99.90;;;;;;5050789;28;20270;-69
2022/07/19 01:39:21;;;;;;;6.22;5.82;;;20.40;99.90;;;;;;5048261;28;20673;-69
2022/07/19 01:41:46;;;;;;;5.75;5.25;;;20.40;99.90;;;;;;5032182;28;20203;-69
2022/07/19 01:44:12;;;;;;;6.38;5.78;;;20.40;99.90;;;;;;5033670;28;20546;-69
2022/07/19 01:46:38;;;;;;;7.97;5.70;;;20.40;99.90;;;;;;5052041;28;20254;-69
2022/07/19 01:49:04;;;;;;;8.50;5.30;;;20.30;99.90;;;;;;5050291;28;20190;-69
2022/07/19 01:51:29;;;;;;;5.60;5.10;;;20.30;99.90;;;;;;5012501;28;20253;-69
2022/07/19 01:53:55;;;;;;;6.22;5.63;;;20.30;99.90;;;;;;5042608;28;20656;-69
2022/07/19 01:56:21;;;;;;;8.68;5.60;;;20.30;99.90;;;;;;5052044;28;20197;-69
2022/07/19 01:58:46;;;;;;;5.82;5.43;;;20.30;99.90;;;;;;5037919;28;20195;-69
2022/07/19 02:01:12;;;;;;;5.85;5.35;;;20.20;99.90;;;;;;5032075;28;20294;-69
2022/07/19 02:03:38;;;;;;;6.88;6.38;;;20.20;99.90;;;;;;5043058;28;20179;-69
2022/07/19 02:06:04;;;;;;;6.60;6.00;;;20.20;99.90;;;;;;5051679;28;20644;-69
2022/07/19 02:08:29;;;;;;;6.57;5.90;;;20.10;99.90;;;;;;5041876;28;20223;-68
2022/07/19 02:10:55;;;;;;;6.03;5.53;;;20.10;99.90;;;;;;5038121;28;20488;-69
2022/07/19 02:13:20;;;;;;;6.73;6.13;;;20.10;99.90;;;;;;5050450;28;20174;-69
2022/07/19 02:15:46;;;;;;;6.18;5.47;;;20.00;99.90;;;;;;5046375;28;20197;-69
2022/07/19 02:18:12;;;;;;;7.60;7.00;;;20.00;99.90;;;;;;5031677;28;20163;-69
2022/07/19 02:20:38;;;;;;;6.17;5.57;;;20.00;99.90;;;;;;5032713;28;20168;-69
2022/07/19 02:23:04;;;;;;;6.78;5.95;;;20.00;99.90;;;;;;5042482;28;20563;-69
2022/07/19 02:25:29;;;;;;;8.65;6.28;;;19.90;99.90;;;;;;5031304;28;20174;-69
2022/07/19 02:27:55;;;;;;;6.15;5.65;;;19.90;99.90;;;;;;5029699;28;20546;-69
2022/07/19 02:30:21;;;;;;;11.33;6.17;;;19.90;99.90;;;;;;5031365;28;20237;-69
2022/07/19 02:32:46;;;;;;;6.40;5.80;;;19.90;99.90;;;;;;5051242;28;20174;-69
2022/07/19 02:35:12;;;;;;;6.40;5.77;;;19.90;99.90;;;;;;5051097;28;20574;-69
2022/07/19 02:37:40;;;;;;;6.47;5.50;;;19.80;99.90;;;;;;5031646;28;20641;-68
2022/07/19 02:40:07;;;;;;;6.03;5.33;;;19.80;99.90;;;;;;5029964;28;20298;-69
2022/07/19 02:42:32;;;;;;;6.00;5.53;;;19.80;99.90;;;;;;5046719;28;20252;-69
2022/07/19 02:44:58;;;;;;;7.05;5.90;;;19.80;99.90;;;;;;5050687;28;20171;-69
2022/07/19 02:47:24;;;;;;;8.68;5.40;;;19.80;99.90;;;;;;5048411;28;20178;-69
2022/07/19 02:49:49;;;;;;;5.43;4.73;;;19.70;99.90;;;;;;5048546;28;20191;-69
2022/07/19 02:52:15;;;;;;;6.40;5.50;;;19.70;99.90;;;;;;5031328;28;20447;-69
2022/07/19 02:54:41;;;;;;;5.87;5.30;;;19.60;99.90;;;;;;5031100;28;20171;-70
2022/07/19 02:57:06;;;;;;;6.90;6.30;;;19.60;99.90;;;;;;5051164;28;20170;-69
2022/07/19 02:59:32;;;;;;;5.70;5.30;;;19.60;99.90;;;;;;5051128;28;20195;-69
2022/07/19 03:01:58;;;;;;;5.88;5.20;;;19.60;99.90;;;;;;5032070;28;20283;-68
2022/07/19 03:04:23;;;;;;;8.70;6.33;;;19.50;99.90;;;;;;5029681;28;20175;-69
2022/07/19 03:06:49;;;;;;;5.97;5.37;;;19.50;99.90;;;;;;5047431;28;20619;-69
2022/07/19 03:09:14;;;;;;;6.83;6.20;;;19.50;99.90;;;;;;5051217;28;20266;-69
2022/07/19 03:11:40;;;;;;;11.73;6.00;;;19.50;99.90;;;;;;5036014;28;20180;-69
2022/07/19 03:14:06;;;;;;;5.67;5.20;;;19.40;99.90;;;;;;5031238;28;20184;-69
2022/07/19 03:16:32;;;;;;;9.10;6.00;;;19.50;99.90;;;;;;5051092;28;20182;-69
2022/07/19 03:18:57;;;;;;;6.03;5.53;;;19.50;99.90;;;;;;5050232;28;20567;-69
2022/07/19 03:21:23;;;;;;;8.00;7.30;;;19.40;99.90;;;;;;5031062;28;20245;-69
2022/07/19 03:23:49;;;;;;;7.20;6.70;;;19.40;99.90;;;;;;5046776;28;20182;-69
2022/07/19 03:26:14;;;;;;;5.60;5.20;;;19.40;99.90;;;;;;5050998;28;20175;-69
2022/07/19 03:28:40;;;;;;;6.97;6.43;;;19.40;99.90;;;;;;5036011;28;20249;-68
2022/07/19 03:31:06;;;;;;;9.67;5.63;;;19.50;99.90;;;;;;5030816;28;20178;-69
2022/07/19 03:33:31;;;;;;;6.63;6.00;;;19.50;99.90;;;;;;5043203;28;20228;-69
2022/07/19 03:35:57;;;;;;;6.10;5.57;;;19.40;99.90;;;;;;5050812;28;20167;-69
2022/07/19 03:38:22;;;;;;;5.17;4.73;;;19.40;99.90;;;;;;5041862;28;20178;-69
2022/07/19 03:40:48;;;;;;;6.23;5.50;;;19.30;99.90;;;;;;5034375;28;20195;-69
2022/07/19 03:43:15;;;;;;;5.70;5.20;;;19.30;99.90;;;;;;5043145;28;20202;-69
2022/07/19 03:45:42;;;;;;;5.73;5.30;;;19.30;99.90;;;;;;5054203;28;20213;-69
2022/07/19 03:48:08;;;;;;;5.78;5.38;;;19.40;99.90;;;;;;5035179;28;20207;-68
2022/07/19 03:50:33;;;;;;;5.83;5.33;;;19.40;99.90;;;;;;5034453;28;20597;-69
2022/07/19 03:52:59;;;;;;;5.40;4.95;;;19.40;99.90;;;;;;5049410;28;20187;-69
2022/07/19 03:55:24;;;;;;;7.72;7.07;;;19.50;99.90;;;;;;5054031;28;20245;-69
2022/07/19 03:57:50;;;;;;;5.28;4.82;;;19.50;99.90;;;;;;5040070;28;20183;-68
2022/07/19 04:00:16;;;;;;;5.22;4.82;;;19.50;99.90;;;;;;5034225;28;20195;-68
2022/07/19 04:02:42;;;;;;;6.00;5.57;;;19.60;99.90;;;;;;5044355;28;20226;-68
2022/07/19 04:05:08;;;;;;;8.63;6.95;;;19.60;99.90;;;;;;5052512;28;20178;-68
2022/07/19 04:07:33;;;;;;;7.90;7.10;;;19.70;99.90;;;;;;5042620;28;20178;-69
2022/07/19 04:09:59;;;;;;;7.43;6.95;;;19.70;99.90;;;;;;5034923;28;20643;-69
2022/07/19 04:12:25;;;;;;;7.63;7.03;;;19.70;99.90;;;;;;5053797;28;20662;-68
2022/07/19 04:14:50;;;;;;;6.90;6.30;;;19.70;99.90;;;;;;5046627;28;20237;-69
2022/07/19 04:17:17;;;;;;;5.97;5.57;;;19.70;99.90;;;;;;5033952;28;20176;-68
2022/07/19 04:19:42;;;;;;;6.73;6.07;;;19.80;99.90;;;;;;5038263;28;20195;-68
2022/07/19 04:22:08;;;;;;;6.32;5.85;;;19.80;99.90;;;;;;5053518;28;20194;-69
2022/07/19 04:24:34;;;;;;;10.10;6.13;;;19.80;99.90;;;;;;5048928;28;20175;-68
2022/07/19 04:26:59;;;;;;;6.30;5.90;;;19.80;99.90;;;;;;5032122;28;20175;-68
2022/07/19 04:29:25;;;;;;;5.63;5.22;;;19.80;99.90;;;;;;5034730;28;20191;-68
2022/07/19 04:31:50;;;;;;;6.00;5.07;;;19.90;99.90;;;;;;5052267;28;20220;-69
2022/07/19 04:34:16;;;;;;;6.40;5.75;;;20.00;99.90;;;;;;5051907;28;20182;-69
2022/07/19 04:36:42;;;;;;;6.72;6.28;;;20.00;99.90;;;;;;5032458;28;20179;-69
2022/07/19 04:39:07;;;;;;;5.77;5.27;;;20.00;99.90;;;;;;5033787;28;20217;-69
2022/07/19 04:41:33;;;;;;;5.67;4.87;;;20.00;99.90;;;;;;5034786;28;20191;-69
2022/07/19 04:43:58;;;;;;;5.75;5.32;;;20.10;99.90;;;;;;5033321;28;20176;-69
2022/07/19 04:46:24;;;;;;;5.63;5.13;;;20.20;99.90;;;;;;5048026;28;20186;-69
2022/07/19 04:48:50;;;;;;;5.90;5.40;;;20.20;99.90;;;;;;5051288;28;20222;-69
2022/07/19 04:51:15;;;;;;;5.32;4.93;;;20.30;99.90;;;;;;5037124;28;20183;-69
2022/07/19 04:53:41;;;;;;;6.43;6.03;;;20.30;99.90;;;;;;5031685;28;20180;-69
2022/07/19 04:56:07;;;;;;;9.50;8.10;;;20.40;99.90;;;;;;5044247;28;20643;-69
2022/07/19 04:58:32;;;;;;;7.07;6.05;;;20.50;99.90;;;;;;5051754;28;20668;-70
2022/07/19 05:00:58;;;;;;;8.38;5.93;;;20.60;99.90;;;;;;5041684;28;20180;-69
2022/07/19 05:03:23;;;;;;;6.40;5.55;;;20.80;99.90;;;;;;5033174;28;20385;-69
2022/07/19 05:05:49;;;;;;;5.28;4.75;;;21.00;99.90;;;;;;5040510;28;20636;-69
2022/07/19 05:08:15;;;;;;;6.97;6.45;;;21.10;99.90;;;;;;5051262;28;20175;-68
2022/07/19 05:10:40;;;;;;;6.28;5.78;;;21.20;99.90;;;;;;5051539;28;20759;-69
2022/07/19 05:13:06;;;;;;;5.18;4.70;;;21.30;99.90;;;;;;5050651;28;20264;-68
2022/07/19 05:15:32;;;;;;;5.82;5.32;;;21.40;99.90;;;;;;5031357;28;20175;-68
2022/07/19 05:17:57;;;;;;;8.20;5.20;;;21.40;99.90;;;;;;5031321;28;20266;-68
2022/07/19 05:20:23;;;;;;;7.65;7.25;;;21.50;99.90;;;;;;5051247;28;20206;-68
2022/07/19 05:22:49;;;;;;;6.57;5.45;;;21.50;99.90;;;;;;5052287;28;20248;-69
2022/07/19 05:25:16;;;;;;;5.35;5.05;;;21.60;99.90;;;;;;5050600;28;20203;-69
2022/07/19 05:27:43;;;;;;;4.28;3.97;;;21.70;99.90;;;;;;5052613;28;20174;-68
2022/07/19 05:30:09;;;;;;;7.35;6.65;;;21.70;99.90;;;;;;5033729;28;20619;-68
2022/07/19 05:32:35;;;;;;;18.88;17.58;;;21.80;99.90;;;;;;5032480;28;20210;-68
2022/07/19 05:35:01;;;;;;;10.25;9.65;;;21.80;99.90;;;;;;5046967;28;20218;-68
2022/07/19 05:37:26;;;;;;;5.57;5.18;;;21.80;99.90;;;;;;5037680;28;20183;-68
2022/07/19 05:39:52;;;;;;;5.63;5.15;;;21.80;99.90;;;;;;5030961;28;20207;-68
2022/07/19 05:42:17;;;;;;;9.07;8.52;;;21.90;99.90;;;;;;5042111;28;20206;-68
2022/07/19 05:44:43;;;;;;;10.57;6.80;;;22.10;99.90;;;;;;5051880;28;20203;-68
2022/07/19 05:47:09;;;;;;;8.90;4.50;;;22.30;99.90;;;;;;5042402;28;20180;-68
2022/07/19 05:49:34;;;;;;;11.30;4.60;;;22.60;99.90;;;;;;5031064;28;20234;-69
2022/07/19 05:52:00;;;;;;;5.85;4.30;;;22.90;99.90;;;;;;5029451;28;20183;-69
2022/07/19 05:54:26;;;;;;;4.70;4.35;;;23.20;99.90;;;;;;5031678;28;20187;-69
2022/07/19 05:56:52;;;;;;;4.75;4.22;;;23.50;99.90;;;;;;5037570;28;20190;-69
2022/07/19 05:59:20;;;;;;;4.38;4.00;;;23.80;99.90;;;;;;5051871;28;20277;-69
2022/07/19 06:01:46;;;;;;;4.38;3.90;;;24.10;99.90;;;;;;5045939;28;20191;-69
2022/07/19 06:04:12;;;;;;;6.28;4.68;;;24.40;99.90;;;;;;5032852;28;20175;-69
2022/07/19 06:06:38;;;;;;;6.25;4.45;;;24.80;99.90;;;;;;5050554;28;20225;-69
2022/07/19 06:09:05;;;;;;;4.80;4.38;;;25.10;99.90;;;;;;5044219;28;20617;-69
2022/07/19 06:11:31;;;;;;;4.07;3.67;;;25.30;99.90;;;;;;5031817;28;20179;-69
2022/07/19 06:13:57;;;;;;;4.38;3.95;;;25.50;99.90;;;;;;5036637;28;20588;-69
2022/07/19 06:16:23;;;;;;;7.88;4.18;;;25.80;99.90;;;;;;5050450;28;20270;-69
2022/07/19 06:18:49;;;;;;;4.20;3.90;;;26.00;99.90;;;;;;5036347;28;20286;-69
2022/07/19 06:21:18;;;;;;;5.30;4.18;;;26.20;99.90;;;;;;5030120;28;20262;-69
2022/07/19 06:23:44;;;;;;;5.45;4.10;;;26.40;99.90;;;;;;5037758;28;20183;-69
2022/07/19 06:26:11;;;;;;;6.32;4.32;;;26.50;99.90;;;;;;5035558;28;20175;-69
2022/07/19 06:28:37;;;;;;;4.00;3.70;;;26.70;99.90;;;;;;5031456;28;20203;-68
2022/07/19 06:31:04;;;;;;;4.15;3.83;;;26.70;99.90;;;;;;5031191;28;20540;-69
2022/07/19 06:33:30;;;;;;;4.97;4.00;;;26.70;99.90;;;;;;5042560;28;20179;-69
2022/07/19 06:35:56;;;;;;;4.35;3.92;;;26.90;99.90;;;;;;5051306;28;20175;-69
2022/07/19 06:38:21;;;;;;;6.00;4.00;;;27.00;99.90;;;;;;5039618;28;20232;-69
2022/07/19 06:40:47;;;;;;;5.80;4.22;;;27.00;99.90;;;;;;5027316;28;20187;-69
2022/07/19 06:43:12;;;;;;;7.78;3.80;;;27.30;99.90;;;;;;5040646;28;20207;-69
2022/07/19 06:45:38;;;;;;;6.03;4.10;;;27.40;99.90;;;;;;5050976;28;20540;-69
2022/07/19 06:48:05;;;;;;;4.20;3.78;;;27.60;99.90;;;;;;5041603;28;20176;-69
2022/07/19 06:50:31;;;;;;;7.28;3.65;;;27.90;99.90;;;;;;5030366;28;20669;-69
2022/07/19 06:52:56;;;;;;;7.85;3.75;;;27.90;99.90;;;;;;5037086;28;20733;-69
2022/07/19 06:55:22;;;;;;;3.97;3.45;;;28.00;99.90;;;;;;5050868;28;20206;-69
2022/07/19 06:57:48;;;;;;;5.07;3.78;;;28.30;99.90;;;;;;5046319;28;20203;-69
2022/07/19 07:00:14;;;;;;;7.72;4.10;;;28.60;99.90;;;;;;5037491;28;20194;-69
2022/07/19 07:02:41;;;;;;;4.80;3.83;;;28.80;99.90;;;;;;5046578;28;20203;-68
2022/07/19 07:05:08;;;;;;;8.23;4.43;;;28.90;99.90;;;;;;5030634;28;20325;-69
2022/07/19 07:07:34;;;;;;;5.45;4.07;;;29.20;99.90;;;;;;5032428;28;20171;-69
2022/07/19 07:10:02;;;;;;;5.10;4.07;;;29.30;99.90;;;;;;5049409;28;20663;-69
2022/07/19 07:12:29;;;;;;;7.60;4.30;;;29.40;99.90;;;;;;5039399;28;20187;-68
2022/07/19 07:14:55;;;;;;;4.45;3.75;;;29.60;99.90;;;;;;5053424;28;20281;-68
2022/07/19 07:17:20;;;;;;;6.05;4.07;;;29.60;99.90;;;;;;5054941;28;20703;-69
2022/07/19 07:19:46;;;;;;;7.75;3.92;;;29.70;99.90;;;;;;5036041;28;20199;-69
2022/07/19 07:22:12;;;;;;;8.15;3.78;;;29.70;99.90;;;;;;5033549;28;20286;-69
2022/07/19 07:24:37;;;;;;;4.45;3.50;;;29.90;99.90;;;;;;5050149;28;20179;-70
2022/07/19 07:27:03;;;;;;;3.63;3.33;;;30.10;99.90;;;;;;5052468;28;20262;-70
2022/07/19 07:29:29;;;;;;;7.40;4.10;;;30.30;99.90;;;;;;5034875;28;20195;-69
2022/07/19 07:31:55;;;;;;;4.22;3.67;;;30.40;99.90;;;;;;5035151;28;20262;-70
2022/07/19 07:34:20;;;;;;;4.38;3.72;;;30.60;99.90;;;;;;5054552;28;20181;-69
2022/07/19 07:36:46;;;;;;;6.13;3.30;;;30.80;99.90;;;;;;5054589;28;20220;-69
2022/07/19 07:39:12;;;;;;;7.97;3.50;;;31.00;99.90;;;;;;5052714;28;20215;-70
2022/07/19 07:41:38;;;;;;;5.13;3.50;;;31.20;99.90;;;;;;5054616;28;20248;-70
2022/07/19 07:44:04;;;;;;;5.65;3.80;;;31.30;99.90;;;;;;5036927;28;20179;-69
2022/07/19 07:46:30;;;;;;;3.88;3.55;;;31.30;99.90;;;;;;5034692;28;20163;-70
2022/07/19 07:48:55;;;;;;;4.20;3.78;;;31.40;99.90;;;;;;5035330;28;20207;-67
2022/07/19 07:51:21;;;;;;;10.88;4.28;;;31.70;99.90;;;;;;5034810;28;20186;-69
2022/07/19 07:53:47;;;;;;;4.00;3.65;;;31.90;99.90;;;;;;5047422;28;20194;-69
2022/07/19 07:56:12;;;;;;;3.53;3.15;;;32.30;99.90;;;;;;5043812;28;20488;-70
2022/07/19 07:58:38;;;;;;;9.48;4.00;;;32.60;99.90;;;;;;5034352;28;20246;-69
2022/07/19 08:01:03;;;;;;;4.35;3.78;;;32.60;99.90;;;;;;5042658;28;20174;-69
2022/07/19 08:03:29;;;;;;;3.58;3.25;;;32.70;99.30;;;;;;5054272;28;20179;-69
2022/07/19 08:05:57;;;;;;;4.03;3.72;;;32.80;98.50;;;;;;5052364;28;20175;-69
2022/07/19 08:08:26;;;;;;;4.40;3.78;;;32.90;99.10;;;;;;5051419;28;20171;-69
2022/07/19 08:10:53;;;;;;;4.72;3.90;;;33.10;98.10;;;;;;5034058;28;20168;-70
2022/07/19 08:13:18;;;;;;;9.52;4.35;;;33.40;98.50;;;;;;5024820;28;20211;-69
2022/07/19 08:15:44;;;;;;;4.35;3.58;;;33.50;98.20;;;;;;5044914;28;20210;-70
2022/07/19 08:18:10;;;;;;;6.32;3.63;;;34.00;97.80;;;;;;5053718;28;20605;-69
2022/07/19 08:20:35;;;;;;;6.07;3.67;;;34.20;95.60;;;;;;5033846;28;20658;-68
2022/07/19 08:23:01;;;;;;;3.80;2.95;;;34.50;96.30;;;;;;5033761;28;20239;-70
2022/07/19 08:25:27;;;;;;;6.60;3.53;;;34.90;94.80;;;;;;5033272;28;20230;-69
2022/07/19 08:27:52;;;;;;;4.22;3.35;;;35.20;93.90;;;;;;5033642;28;20172;-70
2022/07/19 08:30:18;;;;;;;5.60;2.80;;;35.10;92.70;;;;;;5052125;28;20195;-70
2022/07/19 08:32:43;;;;;;;3.40;3.10;;;35.20;94.00;;;;;;5038219;28;20223;-70
2022/07/19 08:35:10;;;;;;;9.93;3.03;;;35.40;93.30;;;;;;5028365;28;20183;-70
2022/07/19 08:37:36;;;;;;;5.50;3.38;;;35.70;92.00;;;;;;5039646;28;20191;-70
2022/07/19 08:40:03;;;;;;;6.45;3.03;;;35.90;89.70;;;;;;5043338;28;20210;-69
2022/07/19 08:42:30;;;;;;;9.52;3.47;;;36.00;89.90;;;;;;5033391;28;20199;-69
2022/07/19 08:44:59;;;;;;;4.90;3.40;;;36.10;90.10;;;;;;5031705;28;20262;-70
2022/07/19 08:47:26;;;;;;;5.47;3.53;;;36.00;89.90;;;;;;5033518;28;20172;-69
2022/07/19 08:49:52;;;;;;;4.05;3.50;;;36.00;88.50;;;;;;5033563;28;20207;-69
2022/07/19 08:52:19;;;;;;;3.30;3.00;;;36.00;86.80;;;;;;5032677;28;20684;-69
2022/07/19 08:54:44;;;;;;;5.28;3.22;;;36.20;86.90;;;;;;5033306;28;20695;-69
2022/07/19 08:59:54;;;;;;;4.28;2.95;;;36.30;82.70;;;;;;5033211;28;20298;-69
2022/07/19 09:02:20;;;;;;;4.28;3.38;;;36.60;82.40;;;;;;5033244;28;20263;-69
2022/07/19 09:05:05;;;;;;;7.00;3.45;;;36.70;82.20;;;;;;5032847;28;20182;-70
2022/07/19 09:07:31;;;;;;;5.00;3.47;;;37.00;80.60;;;;;;5033252;28;20629;-69
2022/07/19 09:10:21;;;;;;;3.22;2.92;;;37.30;78.20;;;;;;5032952;28;20195;-69
2022/07/19 09:13:10;;;;;;;2.90;2.70;;;37.10;77.10;;;;;;5033028;28;20584;-69
2022/07/19 09:15:39;;;;;;;11.35;3.28;;;37.20;76.40;;;;;;5032765;28;20175;-69
2022/07/19 09:18:19;;;;;;;3.83;2.88;;;37.30;77.40;;;;;;5033066;28;20176;-69
2022/07/19 09:20:47;;;;;;;4.90;2.90;;;37.60;78.70;;;;;;5032858;28;20229;-70
2022/07/19 09:23:12;;;;;;;6.20;3.15;;;37.90;74.30;;;;;;5032583;28;20226;-69
2022/07/19 09:25:44;;;;;;;4.10;3.10;;;38.00;72.50;;;;;;5032645;28;20207;-69
2022/07/19 09:28:10;;;;;;;3.45;3.15;;;37.90;71.70;;;;;;5032863;28;20171;-69
2022/07/19 09:30:49;;;;;;;5.82;3.42;;;38.00;71.70;;;;;;5032834;28;20190;-69
2022/07/19 09:33:17;;;;;;;3.67;3.38;;;38.20;72.80;;;;;;5032524;28;20255;-70
2022/07/19 09:35:50;;;;;;;5.38;3.10;;;38.30;69.10;;;;;;5032206;28;20175;-69
2022/07/19 09:38:29;;;;;;;5.70;3.35;;;38.60;72.50;;;;;;5032424;28;20645;-69
2022/07/19 09:41:06;;;;;;;4.55;3.10;;;38.90;70.70;;;;;;5032446;28;20200;-70
2022/07/19 09:43:48;;;;;;;3.47;3.17;;;39.30;70.70;;;;;;5032234;28;20187;-70
2022/07/19 09:46:32;;;;;;;4.40;2.83;;;39.60;66.70;;;;;;5032521;28;20179;-69
2022/07/19 09:49:08;;;;;;;6.20;2.90;;;39.80;66.40;;;;;;5032349;28;20242;-67
2022/07/19 09:51:37;;;;;;;5.70;2.88;;;39.40;60.90;;;;;;5032382;28;20568;-68
2022/07/19 09:54:04;;;;;;;10.02;3.05;;;39.10;66.80;;;;;;5030630;28;20258;-69
2022/07/19 09:56:31;;;;;;;8.10;3.15;;;39.10;63.40;;;;;;5032275;28;20176;-68
2022/07/19 09:58:58;;;;;;;8.88;3.58;;;39.00;64.90;;;;;;5032157;28;20202;-68
2022/07/19 10:01:25;;;;;;;3.92;3.25;;;38.80;61.10;;;;;;5032126;28;20171;-68
2022/07/19 10:03:56;;;;;;;2.90;2.70;;;39.00;61.20;;;;;;5032178;28;20221;-67
2022/07/19 10:06:23;;;;;;;6.07;2.95;;;39.10;58.80;;;;;;5032284;28;20218;-68
2022/07/19 10:08:50;;;;;;;6.22;2.90;;;39.20;57.50;;;;;;5032075;28;20270;-68
2022/07/19 10:11:16;;;;;;;3.30;2.95;;;39.30;59.10;;;;;;5031983;28;20176;-68
2022/07/19 10:13:42;;;;;;;3.53;3.03;;;39.40;57.20;;;;;;5031755;28;20167;-67
2022/07/19 10:16:14;;;;;;;7.47;2.90;;;39.20;55.40;;;;;;5031946;28;20634;-69
2022/07/19 10:19:16;;;;;;;7.30;3.20;;;39.10;58.30;;;;;;5031954;28;20192;-69
2022/07/19 10:21:43;;;;;;;3.50;2.65;;;39.10;58.10;;;;;;5030623;28;20206;-67
2022/07/19 10:24:09;;;;;;;4.00;2.55;;;39.30;56.00;;;;;;5031643;28;20183;-69
2022/07/19 10:26:40;;;;;;;5.40;3.00;;;39.40;54.00;;;;;;5042726;28;20186;-69
2022/07/19 10:29:16;;;;;;;3.65;2.85;;;39.50;55.30;;;;;;5032764;28;20196;-69
2022/07/19 10:31:43;;;;;;;2.60;2.40;;;39.60;56.10;;;;;;5024164;28;20258;-70
2022/07/19 10:34:11;;;;;;;4.50;2.70;;;39.70;55.80;;;;;;5031332;28;20171;-70
2022/07/19 10:36:43;;;;;;;6.05;2.70;;;39.50;52.80;;;;;;5049643;28;20187;-70
2022/07/19 10:39:18;;;;;;;5.47;2.85;;;39.60;52.50;;;;;;5032508;28;20243;-69
2022/07/19 10:42:21;;;;;;;3.08;2.78;;;39.60;51.30;;;;;;5032806;28;20201;-66
2022/07/19 10:44:55;;;;;;;5.07;2.95;;;39.40;51.10;;;;;;5051291;28;20166;-68
2022/07/19 10:47:42;;;;;;;3.67;2.75;;;39.50;52.10;;;;;;5043063;28;20175;-70
2022/07/19 10:50:10;;;;;;;5.93;2.72;;;39.80;48.70;;;;;;5019212;28;20234;-69
2022/07/19 10:52:38;;;;;;;5.88;3.00;;;39.80;47.30;;;;;;5030328;28;20179;-70
2022/07/19 10:55:16;;;;;;;3.75;2.63;;;39.90;47.20;;;;;;5033038;28;20179;-70
2022/07/19 10:57:48;;;;;;;5.30;3.17;;;39.90;45.20;;;;;;5049752;28;20179;-69
2022/07/19 11:00:30;;;;;;;3.67;2.83;;;39.80;46.40;;;;;;5048121;28;20579;-68
2022/07/19 11:03:28;;;;;;;3.55;2.70;;;39.60;44.30;;;;;;5030911;28;20199;-69
2022/07/19 11:05:59;;;;;;;4.55;2.53;;;39.40;44.80;;;;;;5026566;28;20183;-69
2022/07/19 11:08:35;;;;;;;2.85;2.65;;;39.40;44.30;;;;;;5051125;28;20250;-68
2022/07/19 11:11:08;;;;;;;2.72;2.45;;;39.60;45.10;;;;;;5032570;28;20224;-69
2022/07/19 11:13:35;;;;;;;3.03;2.47;;;39.80;45.20;;;;;;5031054;28;20203;-70
2022/07/19 11:16:02;;;;;;;4.35;2.70;;;39.70;42.10;;;;;;5048343;28;20729;-69
2022/07/19 11:18:29;;;;;;;2.85;2.58;;;39.70;42.60;;;;;;5049730;28;20212;-70
2022/07/19 11:20:58;;;;;;;3.70;2.35;;;39.70;42.20;;;;;;5034448;28;20586;-69
2022/07/19 11:23:24;;;;;;;4.20;2.53;;;39.60;42.20;;;;;;5030658;28;20203;-69
2022/07/19 11:25:51;;;;;;;3.00;2.70;;;39.60;42.00;;;;;;5044367;28;20641;-69
2022/07/19 11:28:24;;;;;;;2.85;2.63;;;39.50;41.10;;;;;;5050966;28;20585;-70
2022/07/19 11:30:50;;;;;;;6.78;2.85;;;39.70;41.90;;;;;;5035078;28;20180;-70
2022/07/19 11:33:18;;;;;;;4.07;2.60;;;39.50;40.90;;;;;;5033550;28;20258;-70
2022/07/19 11:35:58;;;;;;;2.40;2.20;;;39.50;41.70;;;;;;5042188;28;20222;-70
2022/07/19 11:38:37;;;;;;;3.83;2.60;;;39.50;40.80;;;;;;5033687;28;20687;-70
2022/07/19 11:41:03;;;;;;;3.67;2.72;;;39.80;43.00;;;;;;5050634;28;20186;-70
2022/07/19 11:43:29;;;;;;;3.63;2.42;;;40.00;43.50;;;;;;5046683;28;20282;-70
2022/07/19 11:45:55;;;;;;;4.25;2.70;;;40.30;41.00;;;;;;5030531;28;20236;-70
2022/07/19 11:48:28;;;;;;;2.95;2.70;;;40.40;41.70;;;;;;5040043;28;20179;-70
2022/07/19 11:50:59;;;;;;;4.43;2.85;;;40.40;41.90;;;;;;5050610;28;20630;-69
2022/07/19 11:53:24;;;;;;;6.65;3.10;;;40.50;43.50;;;;;;5040737;28;20218;-70
2022/07/19 11:55:50;;;;;;;3.15;2.50;;;40.40;40.80;;;;;;5030672;28;20191;-69
2022/07/19 11:58:16;;;;;;;4.13;3.20;;;40.20;40.80;;;;;;5036870;28;20174;-69
2022/07/19 12:00:43;;;;;;;3.10;2.90;;;40.10;40.90;;;;;;5053036;28;20640;-68
2022/07/19 12:03:14;;;;;;;2.83;2.63;;;40.10;42.60;;;;;;5037562;28;20242;-70
2022/07/19 12:05:52;;;;;;;4.68;3.03;;;40.20;41.80;;;;;;5033946;28;20163;-69
2022/07/19 12:08:18;;;;;;;8.40;2.80;;;40.20;40.80;;;;;;5019605;28;20179;-69
2022/07/19 12:10:53;;;;;;;3.33;3.03;;;40.30;41.20;;;;;;5034096;28;20641;-70
2022/07/19 12:13:34;;;;;;;4.28;2.65;;;40.30;41.50;;;;;;5053676;28;20181;-69
2022/07/19 12:16:11;;;;;;;3.95;2.80;;;40.40;41.50;;;;;;5053122;28;20644;-70
2022/07/19 12:18:53;;;;;;;2.80;2.60;;;40.50;42.20;;;;;;5034073;28;20206;-70
2022/07/19 12:21:40;;;;;;;3.58;3.13;;;40.90;43.70;;;;;;5035962;28;20187;-67
2022/07/19 12:24:15;;;;;;;5.30;2.78;;;40.90;39.50;;;;;;5053699;28;21191;-70
2022/07/19 12:26:57;;;;;;;3.20;3.00;;;40.70;40.40;;;;;;5053579;28;20214;-70
2022/07/19 12:29:27;;;;;;;6.70;3.15;;;40.60;39.50;;;;;;5053701;28;20219;-70
2022/07/19 12:31:58;;;;;;;6.30;3.03;;;40.60;39.90;;;;;;5045956;28;20700;-70
2022/07/19 12:34:24;;;;;;;8.88;2.90;;;40.70;40.30;;;;;;5033646;28;20180;-69
2022/07/19 12:36:50;;;;;;;3.55;2.78;;;40.70;39.30;;;;;;5038643;28;20648;-69
2022/07/19 12:39:24;;;;;;;3.00;2.80;;;40.50;40.00;;;;;;5053433;28;20214;-69
2022/07/19 12:42:02;;;;;;;5.13;2.95;;;40.20;39.70;;;;;;5049046;28;20197;-70
2022/07/19 12:44:28;;;;;;;3.30;2.90;;;40.30;40.40;;;;;;5033698;28;20171;-68
2022/07/19 12:46:56;;;;;;;2.97;2.65;;;40.50;39.00;;;;;;5037358;28;20202;-68
2022/07/19 12:49:23;;;;;;;2.72;2.55;;;40.60;38.10;;;;;;5053467;28;20687;-69
2022/07/19 12:51:49;;;;;;;2.88;2.67;;;40.80;38.10;;;;;;5045290;28;20183;-69